Monte Creek, Canada
Current Conditions -  °F | °C
As of 3:00 PM on Thursday 23 Oct 2014 (Local Time) from CYKA Reporting Station
Broken Clouds Broken Clouds  
Wind Chill: 50°   Ceiling: 9500
Heat Index: 50°   Visibility: 40mi
Dew Point: 43°   Wind: 9mph
Humidity: 76%   Direction: 100°E
Pressure: 29.67"   Gusts: NA
Location:  50.65°N, 119.96°W
Report Text: CYKA 232200Z 10008KT 40SM SCT060 BKN095 10/06 A2967 RMK SC3AC4 SLP054
Loading
Personal Weather Stations






























Interactive Weather Map
Tropical Storm Tracking
New forecast layout! Learn more

10-Day Weather Forecast

Advertisements
Track Severe Weather on mobile